sensor_id;sensor_type;location;lat;lon;timestamp;noise_LAeq;noise_LA_min;noise_LA_max;noise_LA01;noise_LA95
37223;Laerm;28026;48.562;14.440;2023-04-25T00:02:06;37.10;30.89;44.39;;
37223;Laerm;28026;48.562;14.440;2023-04-25T00:04:37;42.62;33.44;54.54;;
37223;Laerm;28026;48.562;14.440;2023-04-25T00:07:08;39.99;32.35;44.87;;
37223;Laerm;28026;48.562;14.440;2023-04-25T00:09:39;38.27;32.35;43.29;;
37223;Laerm;28026;48.562;14.440;2023-04-25T00:12:10;37.62;32.35;42.88;;
37223;Laerm;28026;48.562;14.440;2023-04-25T00:14:40;36.72;28.67;39.70;;
37223;Laerm;28026;48.562;14.440;2023-04-25T00:17:11;37.63;32.35;42.93;;
37223;Laerm;28026;48.562;14.440;2023-04-25T00:19:42;37.20;29.92;41.38;;
37223;Laerm;28026;48.562;14.440;2023-04-25T00:22:15;37.29;32.35;42.09;;
37223;Laerm;28026;48.562;14.440;2023-04-25T00:24:46;37.34;30.89;41.75;;
37223;Laerm;28026;48.562;14.440;2023-04-25T00:27:17;41.97;31.68;46.78;;
37223;Laerm;28026;48.562;14.440;2023-04-25T00:29:47;37.63;31.68;43.86;;
37223;Laerm;28026;48.562;14.440;2023-04-25T00:32:18;36.72;30.89;41.38;;
37223;Laerm;28026;48.562;14.440;2023-04-25T00:34:49;36.71;31.68;46.73;;
37223;Laerm;28026;48.562;14.440;2023-04-25T00:37:20;39.25;30.89;51.87;;
37223;Laerm;28026;48.562;14.440;2023-04-25T00:39:51;40.48;32.93;45.91;;
37223;Laerm;28026;48.562;14.440;2023-04-25T00:42:25;42.64;32.35;48.94;;
37223;Laerm;28026;48.562;14.440;2023-04-25T00:44:56;41.42;31.68;48.36;;
37223;Laerm;28026;48.562;14.440;2023-04-25T00:47:28;37.79;31.68;44.58;;
37223;Laerm;28026;48.562;14.440;2023-04-25T00:49:59;37.58;31.68;42.88;;
37223;Laerm;28026;48.562;14.440;2023-04-25T00:52:30;37.30;32.35;42.65;;
37223;Laerm;28026;48.562;14.440;2023-04-25T00:55:01;37.45;30.89;40.33;;
37223;Laerm;28026;48.562;14.440;2023-04-25T00:57:32;37.50;30.89;40.27;;
37223;Laerm;28026;48.562;14.440;2023-04-25T01:00:05;37.16;31.68;40.03;;
37223;Laerm;28026;48.562;14.440;2023-04-25T01:02:37;36.92;30.89;39.70;;
37223;Laerm;28026;48.562;14.440;2023-04-25T01:05:08;36.82;30.89;39.58;;
37223;Laerm;28026;48.562;14.440;2023-04-25T01:07:39;36.93;29.92;40.33;;
37223;Laerm;28026;48.562;14.440;2023-04-25T01:10:11;37.72;32.35;40.62;;
37223;Laerm;28026;48.562;14.440;2023-04-25T01:12:42;37.79;31.68;43.44;;
37223;Laerm;28026;48.562;14.440;2023-04-25T01:15:12;37.06;30.89;39.58;;
37223;Laerm;28026;48.562;14.440;2023-04-25T01:17:44;37.16;32.35;39.70;;
37223;Laerm;28026;48.562;14.440;2023-04-25T01:20:15;37.15;31.68;39.81;;
37223;Laerm;28026;48.562;14.440;2023-04-25T01:22:47;37.22;29.92;41.53;;
37223;Laerm;28026;48.562;14.440;2023-04-25T01:25:18;37.42;29.92;42.59;;
37223;Laerm;28026;48.562;14.440;2023-04-25T01:27:49;37.54;32.93;39.92;;
37223;Laerm;28026;48.562;14.440;2023-04-25T01:30:20;37.35;32.35;41.75;;
37223;Laerm;28026;48.562;14.440;2023-04-25T01:32:54;37.21;32.35;44.87;;
37223;Laerm;28026;48.562;14.440;2023-04-25T01:35:26;37.60;31.68;43.49;;
37223;Laerm;28026;48.562;14.440;2023-04-25T01:37:58;38.20;33.44;42.93;;
37223;Laerm;28026;48.562;14.440;2023-04-25T01:40:30;39.02;32.93;45.36;;
37223;Laerm;28026;48.562;14.440;2023-04-25T01:43:01;38.37;32.93;41.53;;
37223;Laerm;28026;48.562;14.440;2023-04-25T01:45:31;37.74;32.93;40.62;;
37223;Laerm;28026;48.562;14.440;2023-04-25T01:48:03;38.12;31.68;41.96;;
37223;Laerm;28026;48.562;14.440;2023-04-25T01:50:34;37.54;31.68;43.19;;
37223;Laerm;28026;48.562;14.440;2023-04-25T01:53:06;37.69;32.35;43.04;;
37223;Laerm;28026;48.562;14.440;2023-04-25T01:55:37;38.35;32.35;43.34;;
37223;Laerm;28026;48.562;14.440;2023-04-25T01:58:08;41.47;35.86;45.77;;
37223;Laerm;28026;48.562;14.440;2023-04-25T02:00:40;43.59;35.66;51.35;;
37223;Laerm;28026;48.562;14.440;2023-04-25T02:03:11;38.58;32.93;48.70;;
37223;Laerm;28026;48.562;14.440;2023-04-25T02:05:42;37.36;30.89;40.23;;
37223;Laerm;28026;48.562;14.440;2023-04-25T02:08:13;37.93;33.44;40.62;;
37223;Laerm;28026;48.562;14.440;2023-04-25T02:10:44;37.49;31.68;40.43;;
37223;Laerm;28026;48.562;14.440;2023-04-25T02:13:15;38.62;31.33;44.69;;
37223;Laerm;28026;48.562;14.440;2023-04-25T02:15:45;40.55;33.44;49.60;;
37223;Laerm;28026;48.562;14.440;2023-04-25T02:18:16;42.33;35.36;51.32;;
37223;Laerm;28026;48.562;14.440;2023-04-25T02:20:47;38.40;32.93;42.53;;
37223;Laerm;28026;48.562;14.440;2023-04-25T02:23:18;38.08;33.90;40.63;;
37223;Laerm;28026;48.562;14.440;2023-04-25T02:25:50;39.43;32.93;53.99;;
37223;Laerm;28026;48.562;14.440;2023-04-25T02:28:22;40.74;31.68;54.64;;
37223;Laerm;28026;48.562;14.440;2023-04-25T02:30:53;45.36;34.31;54.77;;
37223;Laerm;28026;48.562;14.440;2023-04-25T02:33:24;38.66;33.44;43.86;;
37223;Laerm;28026;48.562;14.440;2023-04-25T02:35:55;39.50;34.31;44.62;;
37223;Laerm;28026;48.562;14.440;2023-04-25T02:38:26;38.23;32.35;49.97;;
37223;Laerm;28026;48.562;14.440;2023-04-25T02:40:56;39.38;33.44;45.54;;
37223;Laerm;28026;48.562;14.440;2023-04-25T02:43:27;38.90;34.31;42.47;;
37223;Laerm;28026;48.562;14.440;2023-04-25T02:45:58;38.96;33.44;44.31;;
37223;Laerm;28026;48.562;14.440;2023-04-25T02:48:29;38.04;32.35;50.56;;
37223;Laerm;28026;48.562;14.440;2023-04-25T02:51:00;39.09;34.69;43.44;;
37223;Laerm;28026;48.562;14.440;2023-04-25T02:53:30;40.35;34.69;45.30;;
37223;Laerm;28026;48.562;14.440;2023-04-25T02:56:01;40.88;33.90;54.78;;
37223;Laerm;28026;48.562;14.440;2023-04-25T02:58:32;39.18;33.90;44.69;;
37223;Laerm;28026;48.562;14.440;2023-04-25T03:01:03;38.63;32.93;45.57;;
37223;Laerm;28026;48.562;14.440;2023-04-25T03:03:34;42.37;35.36;53.23;;
37223;Laerm;28026;48.562;14.440;2023-04-25T03:06:05;40.35;35.94;49.63;;
37223;Laerm;28026;48.562;14.440;2023-04-25T03:08:35;41.56;35.04;46.87;;
37223;Laerm;28026;48.562;14.440;2023-04-25T03:11:06;40.91;36.45;46.62;;
37223;Laerm;28026;48.562;14.440;2023-04-25T03:13:37;41.72;35.66;49.63;;
37223;Laerm;28026;48.562;14.440;2023-04-25T03:16:08;41.18;37.12;53.17;;
37223;Laerm;28026;48.562;14.440;2023-04-25T03:18:39;43.45;38.47;50.40;;
37223;Laerm;28026;48.562;14.440;2023-04-25T03:21:09;44.85;40.80;53.22;;
37223;Laerm;28026;48.562;14.440;2023-04-25T03:23:40;42.61;37.88;51.99;;
37223;Laerm;28026;48.562;14.440;2023-04-25T03:26:11;43.60;36.69;52.63;;
37223;Laerm;28026;48.562;14.440;2023-04-25T03:28:42;41.54;35.36;52.35;;
37223;Laerm;28026;48.562;14.440;2023-04-25T03:31:12;41.50;36.91;50.53;;
37223;Laerm;28026;48.562;14.440;2023-04-25T03:33:43;42.33;35.94;63.12;;
37223;Laerm;28026;48.562;14.440;2023-04-25T03:36:14;41.11;35.01;46.73;;
37223;Laerm;28026;48.562;14.440;2023-04-25T03:38:45;42.41;35.04;55.28;;
37223;Laerm;28026;48.562;14.440;2023-04-25T03:41:15;43.14;35.94;53.11;;
37223;Laerm;28026;48.562;14.440;2023-04-25T03:43:46;41.31;35.94;54.43;;
37223;Laerm;28026;48.562;14.440;2023-04-25T03:46:17;41.67;36.91;48.94;;
37223;Laerm;28026;48.562;14.440;2023-04-25T03:48:48;43.33;36.45;54.78;;
37223;Laerm;28026;48.562;14.440;2023-04-25T03:51:18;50.85;37.12;78.05;;
37223;Laerm;28026;48.562;14.440;2023-04-25T03:53:49;42.46;35.66;48.73;;
37223;Laerm;28026;48.562;14.440;2023-04-25T03:56:20;41.02;35.66;47.16;;
37223;Laerm;28026;48.562;14.440;2023-04-25T03:58:51;43.04;37.88;52.62;;
37223;Laerm;28026;48.562;14.440;2023-04-25T04:01:22;43.51;39.34;53.63;;
37223;Laerm;28026;48.562;14.440;2023-04-25T04:03:53;45.01;39.92;55.16;;
37223;Laerm;28026;48.562;14.440;2023-04-25T04:06:23;45.17;39.21;61.94;;
37223;Laerm;28026;48.562;14.440;2023-04-25T04:08:54;43.70;35.66;53.65;;
37223;Laerm;28026;48.562;14.440;2023-04-25T04:11:25;44.25;39.34;65.00;;
37223;Laerm;28026;48.562;14.440;2023-04-25T04:13:56;42.87;38.37;48.58;;
37223;Laerm;28026;48.562;14.440;2023-04-25T04:16:27;41.30;36.69;49.87;;
37223;Laerm;28026;48.562;14.440;2023-04-25T04:18:58;41.92;37.32;51.84;;
37223;Laerm;28026;48.562;14.440;2023-04-25T04:21:29;42.67;37.52;52.37;;
37223;Laerm;28026;48.562;14.440;2023-04-25T04:24:00;42.31;36.20;52.22;;
37223;Laerm;28026;48.562;14.440;2023-04-25T04:26:32;42.24;37.32;47.76;;
37223;Laerm;28026;48.562;14.440;2023-04-25T04:29:03;44.99;40.03;56.39;;
37223;Laerm;28026;48.562;14.440;2023-04-25T04:31:34;43.25;36.69;49.24;;
37223;Laerm;28026;48.562;14.440;2023-04-25T04:34:04;43.07;37.32;49.51;;
37223;Laerm;28026;48.562;14.440;2023-04-25T04:36:35;44.70;36.45;61.78;;
37223;Laerm;28026;48.562;14.440;2023-04-25T04:39:06;44.06;39.70;54.25;;
37223;Laerm;28026;48.562;14.440;2023-04-25T04:41:37;44.95;38.81;58.23;;
37223;Laerm;28026;48.562;14.440;2023-04-25T04:44:07;42.99;38.52;50.94;;
37223;Laerm;28026;48.562;14.440;2023-04-25T04:46:39;44.19;39.70;56.15;;
37223;Laerm;28026;48.562;14.440;2023-04-25T04:49:11;43.90;40.33;63.85;;
37223;Laerm;28026;48.562;14.440;2023-04-25T04:51:43;43.55;39.34;55.37;;
37223;Laerm;28026;48.562;14.440;2023-04-25T04:54:17;42.58;38.37;55.61;;
37223;Laerm;28026;48.562;14.440;2023-04-25T04:56:48;46.66;41.14;59.77;;
37223;Laerm;28026;48.562;14.440;2023-04-25T04:59:19;46.29;40.88;55.20;;
37223;Laerm;28026;48.562;14.440;2023-04-25T05:01:50;46.71;40.98;56.05;;
37223;Laerm;28026;48.562;14.440;2023-04-25T05:04:21;43.61;40.53;49.11;;
37223;Laerm;28026;48.562;14.440;2023-04-25T05:06:51;44.81;39.81;52.67;;
37223;Laerm;28026;48.562;14.440;2023-04-25T05:09:22;44.28;38.67;64.64;;
37223;Laerm;28026;48.562;14.440;2023-04-25T05:11:56;42.49;38.81;51.70;;
37223;Laerm;28026;48.562;14.440;2023-04-25T05:14:26;43.35;39.08;50.64;;
37223;Laerm;28026;48.562;14.440;2023-04-25T05:16:57;42.90;38.05;49.08;;
37223;Laerm;28026;48.562;14.440;2023-04-25T05:19:28;42.38;37.70;52.84;;
37223;Laerm;28026;48.562;14.440;2023-04-25T05:21:59;43.53;38.37;53.64;;
37223;Laerm;28026;48.562;14.440;2023-04-25T05:24:30;45.04;38.81;64.78;;
37223;Laerm;28026;48.562;14.440;2023-04-25T05:27:01;43.10;38.05;56.39;;
37223;Laerm;28026;48.562;14.440;2023-04-25T05:29:32;45.46;39.46;60.18;;
37223;Laerm;28026;48.562;14.440;2023-04-25T05:32:05;44.69;39.81;56.72;;
37223;Laerm;28026;48.562;14.440;2023-04-25T05:34:36;41.66;36.69;50.54;;
37223;Laerm;28026;48.562;14.440;2023-04-25T05:37:07;41.32;37.32;52.11;;
37223;Laerm;28026;48.562;14.440;2023-04-25T05:39:38;43.31;37.52;59.96;;
37223;Laerm;28026;48.562;14.440;2023-04-25T05:42:08;43.37;37.88;57.75;;
37223;Laerm;28026;48.562;14.440;2023-04-25T05:44:39;43.35;39.46;54.68;;
37223;Laerm;28026;48.562;14.440;2023-04-25T05:47:10;42.38;38.52;53.86;;
37223;Laerm;28026;48.562;14.440;2023-04-25T05:49:41;41.49;37.70;47.02;;
37223;Laerm;28026;48.562;14.440;2023-04-25T05:52:11;43.46;37.88;51.82;;
37223;Laerm;28026;48.562;14.440;2023-04-25T05:54:42;44.49;38.37;56.97;;
37223;Laerm;28026;48.562;14.440;2023-04-25T05:57:24;42.54;38.05;51.70;;
37223;Laerm;28026;48.562;14.440;2023-04-25T05:59:55;41.00;36.69;52.96;;
37223;Laerm;28026;48.562;14.440;2023-04-25T06:02:26;42.87;37.12;53.86;;
37223;Laerm;28026;48.562;14.440;2023-04-25T06:04:57;40.88;37.52;51.41;;
37223;Laerm;28026;48.562;14.440;2023-04-25T06:07:27;40.82;37.70;54.84;;
37223;Laerm;28026;48.562;14.440;2023-04-25T06:09:58;40.56;37.32;49.85;;
37223;Laerm;28026;48.562;14.440;2023-04-25T06:12:31;42.61;37.32;61.80;;
37223;Laerm;28026;48.562;14.440;2023-04-25T06:15:02;41.99;37.32;63.27;;
37223;Laerm;28026;48.562;14.440;2023-04-25T06:17:33;49.27;37.52;74.27;;
37223;Laerm;28026;48.562;14.440;2023-04-25T06:20:05;55.15;38.21;79.87;;
37223;Laerm;28026;48.562;14.440;2023-04-25T06:22:36;46.67;35.94;69.96;;
37223;Laerm;28026;48.562;14.440;2023-04-25T06:25:07;51.95;35.94;74.82;;
37223;Laerm;28026;48.562;14.440;2023-04-25T06:27:38;56.05;36.20;78.59;;
37223;Laerm;28026;48.562;14.440;2023-04-25T06:30:09;60.10;35.94;83.57;;
37223;Laerm;28026;48.562;14.440;2023-04-25T06:32:42;61.33;36.91;83.96;;
37223;Laerm;28026;48.562;14.440;2023-04-25T06:35:13;71.28;35.94;95.55;;
37223;Laerm;28026;48.562;14.440;2023-04-25T06:37:44;61.17;37.52;89.35;;
37223;Laerm;28026;48.562;14.440;2023-04-25T06:40:15;56.03;37.12;84.93;;
37223;Laerm;28026;48.562;14.440;2023-04-25T06:42:47;41.31;36.45;56.86;;
37223;Laerm;28026;48.562;14.440;2023-04-25T06:45:18;52.88;35.94;78.92;;
37223;Laerm;28026;48.562;14.440;2023-04-25T06:47:49;41.87;37.52;60.18;;
37223;Laerm;28026;48.562;14.440;2023-04-25T06:50:20;41.09;37.52;43.99;;
37223;Laerm;28026;48.562;14.440;2023-04-25T06:52:50;43.85;37.88;64.79;;
37223;Laerm;28026;48.562;14.440;2023-04-25T06:55:21;43.09;37.88;60.78;;
37223;Laerm;28026;48.562;14.440;2023-04-25T06:57:52;42.00;37.32;59.80;;
37223;Laerm;28026;48.562;14.440;2023-04-25T07:00:23;42.90;37.70;63.10;;
37223;Laerm;28026;48.562;14.440;2023-04-25T07:02:53;43.33;36.91;64.77;;
37223;Laerm;28026;48.562;14.440;2023-04-25T07:05:24;42.33;36.45;59.63;;
37223;Laerm;28026;48.562;14.440;2023-04-25T07:07:55;41.60;38.05;50.23;;
37223;Laerm;28026;48.562;14.440;2023-04-25T07:10:26;41.63;37.32;57.57;;
37223;Laerm;28026;48.562;14.440;2023-04-25T07:12:56;41.90;36.45;51.88;;
37223;Laerm;28026;48.562;14.440;2023-04-25T07:15:27;43.18;38.95;51.91;;
37223;Laerm;28026;48.562;14.440;2023-04-25T07:17:58;42.89;37.70;58.45;;
37223;Laerm;28026;48.562;14.440;2023-04-25T07:20:29;41.06;35.94;57.91;;
37223;Laerm;28026;48.562;14.440;2023-04-25T07:23:01;45.16;35.94;75.24;;
37223;Laerm;28026;48.562;14.440;2023-04-25T07:25:32;42.67;38.05;50.71;;
37223;Laerm;28026;48.562;14.440;2023-04-25T07:28:03;44.77;35.04;73.36;;
37223;Laerm;28026;48.562;14.440;2023-04-25T07:30:34;47.64;36.69;72.38;;
37223;Laerm;28026;48.562;14.440;2023-04-25T07:33:05;50.39;37.32;82.31;;
37223;Laerm;28026;48.562;14.440;2023-04-25T07:35:36;49.76;35.36;74.98;;
37223;Laerm;28026;48.562;14.440;2023-04-25T07:38:07;41.24;36.20;60.62;;
37223;Laerm;28026;48.562;14.440;2023-04-25T07:40:38;42.17;35.94;57.82;;
37223;Laerm;28026;48.562;14.440;2023-04-25T07:43:09;42.47;36.45;57.61;;
37223;Laerm;28026;48.562;14.440;2023-04-25T07:45:46;43.01;36.20;69.20;;
37223;Laerm;28026;48.562;14.440;2023-04-25T07:48:18;41.13;33.90;50.74;;
37223;Laerm;28026;48.562;14.440;2023-04-25T07:50:49;44.81;35.36;76.42;;
37223;Laerm;28026;48.562;14.440;2023-04-25T07:53:20;43.56;35.36;68.39;;
37223;Laerm;28026;48.562;14.440;2023-04-25T07:55:50;41.88;37.52;59.20;;
37223;Laerm;28026;48.562;14.440;2023-04-25T07:58:21;41.53;36.69;59.91;;
37223;Laerm;28026;48.562;14.440;2023-04-25T08:00:52;56.58;37.12;83.75;;
37223;Laerm;28026;48.562;14.440;2023-04-25T08:03:23;41.20;37.12;59.87;;
37223;Laerm;28026;48.562;14.440;2023-04-25T08:05:54;40.77;35.94;56.30;;
37223;Laerm;28026;48.562;14.440;2023-04-25T08:08:25;42.27;37.12;63.68;;
37223;Laerm;28026;48.562;14.440;2023-04-25T08:10:55;53.50;37.52;81.15;;
37223;Laerm;28026;48.562;14.440;2023-04-25T08:13:26;56.04;37.87;84.32;;
37223;Laerm;28026;48.562;14.440;2023-04-25T08:15:57;44.92;36.45;67.88;;
37223;Laerm;28026;48.562;14.440;2023-04-25T08:18:28;47.91;37.88;73.50;;
37223;Laerm;28026;48.562;14.440;2023-04-25T08:20:58;47.26;36.20;74.44;;
37223;Laerm;28026;48.562;14.440;2023-04-25T08:23:30;46.39;35.66;71.38;;
37223;Laerm;28026;48.562;14.440;2023-04-25T08:26:02;55.84;38.18;79.08;;
37223;Laerm;28026;48.562;14.440;2023-04-25T08:28:33;47.69;37.52;71.91;;
37223;Laerm;28026;48.562;14.440;2023-04-25T08:31:04;57.77;36.91;87.58;;
37223;Laerm;28026;48.562;14.440;2023-04-25T08:33:35;49.60;36.91;73.70;;
37223;Laerm;28026;48.562;14.440;2023-04-25T08:36:06;63.01;37.52;92.43;;
37223;Laerm;28026;48.562;14.440;2023-04-25T08:38:37;54.17;35.94;77.50;;
37223;Laerm;28026;48.562;14.440;2023-04-25T08:41:10;46.08;35.94;72.40;;
37223;Laerm;28026;48.562;14.440;2023-04-25T08:43:42;46.13;33.90;77.44;;
37223;Laerm;28026;48.562;14.440;2023-04-25T08:46:18;42.30;36.20;64.26;;
37223;Laerm;28026;48.562;14.440;2023-04-25T08:48:49;41.03;35.94;58.50;;
37223;Laerm;28026;48.562;14.440;2023-04-25T08:51:25;41.04;36.91;57.76;;
37223;Laerm;28026;48.562;14.440;2023-04-25T08:54:10;45.48;36.20;68.69;;
37223;Laerm;28026;48.562;14.440;2023-04-25T08:56:45;48.00;35.04;76.95;;
37223;Laerm;28026;48.562;14.440;2023-04-25T08:59:18;56.60;35.94;81.86;;
37223;Laerm;28026;48.562;14.440;2023-04-25T09:01:50;46.19;37.32;71.61;;
37223;Laerm;28026;48.562;14.440;2023-04-25T09:04:21;50.26;36.56;77.92;;
37223;Laerm;28026;48.562;14.440;2023-04-25T09:06:52;61.40;38.67;86.85;;
37223;Laerm;28026;48.562;14.440;2023-04-25T09:09:24;66.58;39.81;91.78;;
37223;Laerm;28026;48.562;14.440;2023-04-25T09:11:54;68.39;39.08;94.29;;
37223;Laerm;28026;48.562;14.440;2023-04-25T09:14:26;67.47;40.03;94.74;;
37223;Laerm;28026;48.562;14.440;2023-04-25T09:17:04;64.83;40.79;90.83;;
37223;Laerm;28026;48.562;14.440;2023-04-25T09:19:36;62.48;41.06;90.63;;
37223;Laerm;28026;48.562;14.440;2023-04-25T09:22:10;56.05;38.81;84.41;;
37223;Laerm;28026;48.562;14.440;2023-04-25T09:24:43;52.77;38.67;79.95;;
37223;Laerm;28026;48.562;14.440;2023-04-25T09:27:21;53.86;42.98;82.50;;
37223;Laerm;28026;48.562;14.440;2023-04-25T09:29:59;49.70;37.88;63.13;;
37223;Laerm;28026;48.562;14.440;2023-04-25T09:32:34;44.83;36.20;61.12;;
37223;Laerm;28026;48.562;14.440;2023-04-25T09:35:05;43.24;37.52;57.03;;
37223;Laerm;28026;48.562;14.440;2023-04-25T09:37:36;43.51;38.05;57.67;;
37223;Laerm;28026;48.562;14.440;2023-04-25T09:40:08;46.52;39.58;68.73;;
37223;Laerm;28026;48.562;14.440;2023-04-25T09:42:41;41.34;36.69;51.34;;
37223;Laerm;28026;48.562;14.440;2023-04-25T09:45:13;47.34;35.66;63.37;;
37223;Laerm;28026;48.562;14.440;2023-04-25T09:47:46;44.04;36.69;60.30;;
37223;Laerm;28026;48.562;14.440;2023-04-25T09:50:17;49.79;37.70;61.92;;
37223;Laerm;28026;48.562;14.440;2023-04-25T09:53:05;43.14;34.31;67.62;;
37223;Laerm;28026;48.562;14.440;2023-04-25T09:55:38;46.33;34.31;71.78;;
37223;Laerm;28026;48.562;14.440;2023-04-25T09:58:11;41.51;33.90;65.69;;
37223;Laerm;28026;48.562;14.440;2023-04-25T10:00:43;41.20;35.66;63.60;;
37223;Laerm;28026;48.562;14.440;2023-04-25T10:03:15;40.80;34.69;63.62;;
37223;Laerm;28026;48.562;14.440;2023-04-25T10:05:48;47.84;34.69;78.56;;
37223;Laerm;28026;48.562;14.440;2023-04-25T10:08:21;41.02;32.93;64.28;;
37223;Laerm;28026;48.562;14.440;2023-04-25T10:10:53;48.25;33.44;73.07;;
37223;Laerm;28026;48.562;14.440;2023-04-25T10:13:24;54.17;33.90;82.29;;
37223;Laerm;28026;48.562;14.440;2023-04-25T10:16:01;53.11;36.45;82.63;;
37223;Laerm;28026;48.562;14.440;2023-04-25T10:18:32;45.42;37.12;69.67;;
37223;Laerm;28026;48.562;14.440;2023-04-25T10:21:05;47.67;35.36;72.89;;
37223;Laerm;28026;48.562;14.440;2023-04-25T10:23:37;58.14;37.35;84.36;;
37223;Laerm;28026;48.562;14.440;2023-04-25T10:26:09;61.49;37.32;87.68;;
37223;Laerm;28026;48.562;14.440;2023-04-25T10:28:58;50.60;38.21;81.56;;
37223;Laerm;28026;48.562;14.440;2023-04-25T10:31:30;57.79;37.88;81.74;;
37223;Laerm;28026;48.562;14.440;2023-04-25T10:34:01;57.59;37.52;83.89;;
37223;Laerm;28026;48.562;14.440;2023-04-25T10:36:32;68.76;37.88;94.17;;
37223;Laerm;28026;48.562;14.440;2023-04-25T10:39:06;62.46;38.95;89.26;;
37223;Laerm;28026;48.562;14.440;2023-04-25T10:41:59;69.54;38.67;98.42;;
37223;Laerm;28026;48.562;14.440;2023-04-25T10:44:33;65.73;39.21;91.60;;
37223;Laerm;28026;48.562;14.440;2023-04-25T10:47:07;61.97;38.67;88.26;;
37223;Laerm;28026;48.562;14.440;2023-04-25T10:49:43;58.41;38.67;83.03;;
37223;Laerm;28026;48.562;14.440;2023-04-25T10:52:28;61.32;37.70;88.78;;
37223;Laerm;28026;48.562;14.440;2023-04-25T10:55:03;65.43;36.20;98.40;;
37223;Laerm;28026;48.562;14.440;2023-04-25T10:57:42;64.67;37.32;89.97;;
37223;Laerm;28026;48.562;14.440;2023-04-25T11:00:20;51.23;35.94;78.33;;
37223;Laerm;28026;48.562;14.440;2023-04-25T11:02:58;57.19;37.52;82.80;;
37223;Laerm;28026;48.562;14.440;2023-04-25T11:05:33;54.26;37.70;82.77;;
37223;Laerm;28026;48.562;14.440;2023-04-25T11:08:13;57.81;38.81;80.66;;
37223;Laerm;28026;48.562;14.440;2023-04-25T11:10:44;63.04;38.05;89.90;;
37223;Laerm;28026;48.562;14.440;2023-04-25T11:13:15;69.38;38.67;94.34;;
37223;Laerm;28026;48.562;14.440;2023-04-25T11:15:51;66.37;39.57;90.97;;
37223;Laerm;28026;48.562;14.440;2023-04-25T11:18:26;70.25;38.81;96.46;;
37223;Laerm;28026;48.562;14.440;2023-04-25T11:20:57;63.03;39.58;89.05;;
37223;Laerm;28026;48.562;14.440;2023-04-25T11:23:30;62.71;38.67;91.26;;
37223;Laerm;28026;48.562;14.440;2023-04-25T11:26:01;70.50;38.95;99.57;;
37223;Laerm;28026;48.562;14.440;2023-04-25T11:28:31;67.99;40.33;90.16;;
37223;Laerm;28026;48.562;14.440;2023-04-25T11:31:04;72.54;41.06;94.49;;
37223;Laerm;28026;48.562;14.440;2023-04-25T11:33:35;66.18;38.81;94.13;;
37223;Laerm;28026;48.562;14.440;2023-04-25T11:36:07;66.11;39.21;93.64;;
37223;Laerm;28026;48.562;14.440;2023-04-25T11:38:37;67.37;39.70;98.39;;
37223;Laerm;28026;48.562;14.440;2023-04-25T11:41:08;61.19;40.03;87.74;;
37223;Laerm;28026;48.562;14.440;2023-04-25T11:43:39;69.52;40.80;93.87;;
37223;Laerm;28026;48.562;14.440;2023-04-25T11:46:10;64.19;39.46;91.21;;
37223;Laerm;28026;48.562;14.440;2023-04-25T11:48:43;58.93;37.70;80.41;;
37223;Laerm;28026;48.562;14.440;2023-04-25T11:51:14;59.99;37.88;86.90;;
37223;Laerm;28026;48.562;14.440;2023-04-25T11:53:45;63.41;38.81;86.68;;
37223;Laerm;28026;48.562;14.440;2023-04-25T11:56:16;66.10;38.21;92.90;;
37223;Laerm;28026;48.562;14.440;2023-04-25T11:59:06;53.07;38.47;80.95;;
37223;Laerm;28026;48.562;14.440;2023-04-25T12:01:40;58.35;36.91;85.29;;
37223;Laerm;28026;48.562;14.440;2023-04-25T12:04:22;55.94;36.69;78.49;;
37223;Laerm;28026;48.562;14.440;2023-04-25T12:06:54;62.08;36.45;90.46;;
37223;Laerm;28026;48.562;14.440;2023-04-25T12:09:33;54.33;36.20;79.67;;
37223;Laerm;28026;48.562;14.440;2023-04-25T12:12:04;59.63;37.70;81.88;;
37223;Laerm;28026;48.562;14.440;2023-04-25T12:14:36;45.31;37.12;68.33;;
37223;Laerm;28026;48.562;14.440;2023-04-25T12:17:07;53.30;36.69;79.19;;
37223;Laerm;28026;48.562;14.440;2023-04-25T12:19:38;44.35;37.12;68.54;;
37223;Laerm;28026;48.562;14.440;2023-04-25T12:22:22;43.30;36.45;71.26;;
37223;Laerm;28026;48.562;14.440;2023-04-25T12:24:53;47.83;35.66;70.47;;
37223;Laerm;28026;48.562;14.440;2023-04-25T12:27:25;47.94;38.21;76.97;;
37223;Laerm;28026;48.562;14.440;2023-04-25T12:29:58;47.47;36.69;74.41;;
37223;Laerm;28026;48.562;14.440;2023-04-25T12:32:29;47.92;36.45;70.42;;
37223;Laerm;28026;48.562;14.440;2023-04-25T12:34:59;42.68;38.21;58.43;;
37223;Laerm;28026;48.562;14.440;2023-04-25T12:37:30;58.86;38.05;85.31;;
37223;Laerm;28026;48.562;14.440;2023-04-25T12:40:02;60.74;36.45;90.17;;
37223;Laerm;28026;48.562;14.440;2023-04-25T12:42:34;45.45;36.45;70.36;;
37223;Laerm;28026;48.562;14.440;2023-04-25T12:45:06;50.23;36.69;76.04;;
37223;Laerm;28026;48.562;14.440;2023-04-25T12:47:36;45.96;35.36;71.30;;
37223;Laerm;28026;48.562;14.440;2023-04-25T12:50:08;50.12;36.45;75.51;;
37223;Laerm;28026;48.562;14.440;2023-04-25T12:52:39;48.65;33.90;74.18;;
37223;Laerm;28026;48.562;14.440;2023-04-25T12:55:09;52.91;35.36;81.56;;
37223;Laerm;28026;48.562;14.440;2023-04-25T12:57:40;47.19;35.36;76.29;;
37223;Laerm;28026;48.562;14.440;2023-04-25T13:00:12;40.55;35.66;60.65;;
37223;Laerm;28026;48.562;14.440;2023-04-25T13:02:45;52.24;36.20;82.07;;
37223;Laerm;28026;48.562;14.440;2023-04-25T13:05:19;52.36;36.45;80.90;;
37223;Laerm;28026;48.562;14.440;2023-04-25T13:07:50;48.39;38.81;74.11;;
37223;Laerm;28026;48.562;14.440;2023-04-25T13:10:21;54.18;33.90;80.11;;
37223;Laerm;28026;48.562;14.440;2023-04-25T13:12:52;56.89;35.66;84.06;;
37223;Laerm;28026;48.562;14.440;2023-04-25T13:15:23;56.34;36.45;85.92;;
37223;Laerm;28026;48.562;14.440;2023-04-25T13:17:54;60.65;36.20;85.95;;
37223;Laerm;28026;48.562;14.440;2023-04-25T13:20:24;57.02;35.66;82.17;;
37223;Laerm;28026;48.562;14.440;2023-04-25T13:22:55;58.60;36.45;83.04;;
37223;Laerm;28026;48.562;14.440;2023-04-25T13:25:26;57.99;35.94;83.20;;
37223;Laerm;28026;48.562;14.440;2023-04-25T13:27:57;43.76;37.12;66.52;;
37223;Laerm;28026;48.562;14.440;2023-04-25T13:30:28;52.48;36.91;78.62;;
37223;Laerm;28026;48.562;14.440;2023-04-25T13:32:59;45.60;37.12;69.39;;
37223;Laerm;28026;48.562;14.440;2023-04-25T13:35:35;51.55;36.20;79.09;;
37223;Laerm;28026;48.562;14.440;2023-04-25T13:38:06;53.96;36.69;78.87;;
37223;Laerm;28026;48.562;14.440;2023-04-25T13:40:37;42.93;36.45;65.69;;
37223;Laerm;28026;48.562;14.440;2023-04-25T13:43:07;41.25;36.45;50.64;;
37223;Laerm;28026;48.562;14.440;2023-04-25T13:45:39;43.93;35.04;70.22;;
37223;Laerm;28026;48.562;14.440;2023-04-25T13:48:10;46.69;37.70;71.59;;
37223;Laerm;28026;48.562;14.440;2023-04-25T13:50:41;58.23;38.21;87.28;;
37223;Laerm;28026;48.562;14.440;2023-04-25T13:53:11;51.59;38.21;82.48;;
37223;Laerm;28026;48.562;14.440;2023-04-25T13:55:42;61.90;39.92;89.85;;
37223;Laerm;28026;48.562;14.440;2023-04-25T13:58:13;58.35;38.02;86.52;;